createdAt,value
2018-03-11T00:01:12.432Z,1.00
2018-03-11T00:03:40.083Z,1.30
2018-03-11T00:06:07.688Z,1.37
2018-03-11T00:08:35.444Z,1.27
2018-03-11T00:11:03.074Z,1.20
2018-03-11T00:13:30.680Z,1.30
2018-03-11T00:15:58.327Z,1.10
2018-03-11T00:18:25.980Z,1.90
2018-03-11T00:20:54.127Z,1.53
2018-03-11T00:23:21.723Z,2.20
2018-03-11T00:25:55.488Z,1.90
2018-03-11T00:28:23.111Z,1.10
2018-03-11T00:30:50.963Z,1.10
2018-03-11T00:33:18.599Z,0.90
2018-03-11T00:35:46.301Z,1.30
2018-03-11T00:38:13.952Z,1.30
2018-03-11T00:40:41.593Z,1.20
2018-03-11T00:43:09.203Z,1.40
2018-03-11T00:45:36.825Z,1.03
2018-03-11T00:48:05.207Z,1.13
2018-03-11T00:50:32.831Z,1.20
2018-03-11T00:53:00.481Z,1.23
2018-03-11T00:55:28.087Z,1.20
2018-03-11T00:57:56.514Z,1.47
2018-03-11T01:00:24.863Z,1.13
2018-03-11T01:02:52.511Z,0.83
2018-03-11T01:05:20.111Z,1.27
2018-03-11T01:07:48.497Z,0.90
2018-03-11T01:10:16.910Z,1.33
2018-03-11T01:12:45.295Z,1.73
2018-03-11T01:15:12.952Z,2.10
2018-03-11T01:17:40.551Z,1.73
2018-03-11T01:20:08.171Z,1.10
2018-03-11T01:22:36.535Z,1.10
2018-03-11T01:25:04.156Z,1.00
2018-03-11T01:27:31.768Z,1.10
2018-03-11T01:29:59.386Z,1.60
2018-03-11T01:32:26.998Z,6.43
2018-03-11T01:34:54.928Z,11.17
2018-03-11T01:37:22.592Z,11.43
2018-03-11T01:39:50.302Z,4.80
2018-03-11T01:42:17.912Z,8.20
2018-03-11T01:44:45.555Z,6.43
2018-03-11T01:47:14.036Z,4.47
2018-03-11T01:49:42.409Z,1.60
2018-03-11T01:52:10.022Z,1.50
2018-03-11T01:54:37.651Z,0.90
2018-03-11T01:57:06.029Z,1.10
2018-03-11T01:59:34.448Z,1.13
2018-03-11T02:02:02.068Z,0.87
2018-03-11T02:04:30.742Z,1.10
2018-03-11T02:06:58.361Z,1.10
2018-03-11T02:09:26.037Z,1.00
2018-03-11T02:11:53.688Z,0.77
2018-03-11T02:14:21.299Z,1.00
2018-03-11T02:16:48.947Z,0.97
2018-03-11T02:19:16.613Z,0.87
2018-03-11T02:21:44.241Z,0.83
2018-03-11T02:24:12.613Z,0.90
2018-03-11T02:26:40.205Z,1.00
2018-03-11T02:29:07.829Z,0.80
2018-03-11T02:31:35.545Z,0.90
2018-03-11T02:34:03.902Z,1.20
2018-03-11T02:36:32.484Z,0.93
2018-03-11T02:39:01.141Z,0.87
2018-03-11T02:41:28.838Z,0.97
2018-03-11T02:43:56.461Z,0.67
2018-03-11T02:46:24.083Z,1.20
2018-03-11T02:48:52.492Z,1.00
2018-03-11T02:51:20.135Z,0.70
2018-03-11T02:53:48.540Z,0.67
2018-03-11T02:56:16.140Z,1.10
2018-03-11T02:58:43.759Z,0.70
2018-03-11T03:01:11.357Z,1.00
2018-03-11T03:03:38.981Z,1.00
2018-03-11T03:06:07.388Z,0.83
2018-03-11T03:08:35.290Z,0.67
2018-03-11T03:11:02.971Z,0.90
2018-03-11T03:13:30.575Z,0.67
2018-03-11T03:15:58.977Z,0.80
2018-03-11T03:18:26.594Z,0.97
2018-03-11T03:20:54.206Z,0.70
2018-03-11T03:23:21.807Z,0.60
2018-03-11T03:25:49.436Z,0.73
2018-03-11T03:28:17.034Z,0.80
2018-03-11T03:30:44.723Z,0.57
2018-03-11T03:33:12.272Z,0.80
2018-03-11T03:35:39.902Z,0.70
2018-03-11T03:38:07.515Z,0.80
2018-03-11T03:40:35.122Z,0.63
2018-03-11T03:43:02.755Z,0.53
2018-03-11T03:45:30.357Z,0.80
2018-03-11T03:47:57.971Z,0.90
2018-03-11T03:50:25.581Z,0.70
2018-03-11T03:52:53.969Z,0.70
2018-03-11T03:55:21.560Z,0.70
2018-03-11T03:57:49.180Z,1.13
2018-03-11T04:00:17.575Z,0.60
2018-03-11T04:02:45.977Z,0.83
2018-03-11T04:05:13.765Z,0.90
2018-03-11T04:07:41.353Z,0.80
2018-03-11T04:10:09.304Z,1.10
2018-03-11T04:12:36.911Z,0.80
2018-03-11T04:15:04.545Z,0.73
2018-03-11T04:17:32.177Z,1.67
2018-03-11T04:19:59.776Z,1.20
2018-03-11T04:22:27.566Z,0.90
2018-03-11T04:24:55.167Z,0.80
2018-03-11T04:27:23.574Z,1.10
2018-03-11T04:29:51.181Z,0.77
2018-03-11T04:32:18.810Z,0.70
2018-03-11T04:34:46.409Z,1.10
2018-03-11T04:37:14.082Z,0.90
2018-03-11T04:39:41.704Z,0.83
2018-03-11T04:42:09.295Z,1.00
2018-03-11T04:44:36.943Z,0.90
2018-03-11T04:47:04.568Z,0.80
2018-03-11T04:49:32.982Z,0.77
2018-03-11T04:52:00.602Z,1.00
2018-03-11T04:54:28.194Z,0.83
2018-03-11T04:56:56.592Z,0.70
2018-03-11T04:59:24.260Z,0.77
2018-03-11T05:01:51.940Z,0.90
2018-03-11T05:04:19.530Z,0.63
2018-03-11T05:06:47.491Z,0.50
2018-03-11T05:09:15.094Z,0.77
2018-03-11T05:11:42.734Z,1.07
2018-03-11T05:14:10.360Z,1.03
2018-03-11T05:16:37.970Z,0.70
2018-03-11T05:19:05.596Z,0.70
2018-03-11T05:21:33.180Z,0.80
2018-03-11T05:24:00.819Z,0.90
2018-03-11T05:26:28.454Z,0.70
2018-03-11T05:28:56.846Z,0.60
2018-03-11T05:31:25.239Z,0.80
2018-03-11T05:33:53.638Z,0.47
2018-03-11T05:36:21.252Z,0.50
2018-03-11T05:38:48.892Z,0.60
2018-03-11T05:41:16.513Z,0.70
2018-03-11T05:43:44.925Z,1.20
2018-03-11T05:46:12.549Z,24.23
2018-03-11T05:48:40.167Z,16.57
2018-03-11T05:51:08.147Z,4.60
2018-03-11T05:53:35.758Z,1.20
2018-03-11T05:56:03.401Z,1.20
2018-03-11T05:58:30.993Z,1.00
2018-03-11T06:00:59.374Z,0.80
2018-03-11T06:03:27.057Z,1.10
2018-03-11T06:05:55.469Z,1.40
2018-03-11T06:08:23.102Z,2.70
2018-03-11T06:10:51.475Z,6.40
2018-03-11T06:13:19.179Z,4.57
2018-03-11T06:15:46.771Z,7.70
2018-03-11T06:18:15.208Z,2.37
2018-03-11T06:20:42.830Z,1.60
2018-03-11T06:23:10.434Z,2.80
2018-03-11T06:25:38.811Z,1.30
2018-03-11T06:28:06.573Z,1.73
2018-03-11T06:30:34.962Z,1.80
2018-03-11T06:33:03.346Z,1.10
2018-03-11T06:35:30.949Z,1.33
2018-03-11T06:37:58.568Z,1.30
2018-03-11T06:40:26.258Z,1.00
2018-03-11T06:42:54.662Z,2.27
2018-03-11T06:45:22.262Z,1.40
2018-03-11T06:47:50.122Z,1.20
2018-03-11T06:50:17.813Z,1.30
2018-03-11T06:52:45.439Z,0.97
2018-03-11T06:55:13.200Z,0.90
2018-03-11T06:57:40.880Z,0.77
2018-03-11T07:00:08.492Z,0.67
2018-03-11T07:02:36.737Z,0.80
2018-03-11T07:05:04.452Z,0.80
2018-03-11T07:07:32.819Z,0.83
2018-03-11T07:10:00.470Z,1.13
2018-03-11T07:12:28.315Z,0.73
2018-03-11T07:14:55.934Z,0.50
2018-03-11T07:17:23.569Z,0.90
2018-03-11T07:19:51.213Z,0.90
2018-03-11T07:22:18.837Z,0.53
2018-03-11T07:24:46.484Z,0.80
2018-03-11T07:27:14.193Z,0.70
2018-03-11T07:29:41.819Z,0.80
2018-03-11T07:32:09.439Z,0.97
2018-03-11T07:34:37.060Z,0.60
2018-03-11T07:37:04.869Z,0.60
2018-03-11T07:39:32.511Z,0.67
2018-03-11T07:42:00.886Z,0.80
2018-03-11T07:44:29.627Z,0.60
2018-03-11T07:46:57.244Z,0.50
2018-03-11T07:49:25.606Z,0.60
2018-03-11T07:51:53.234Z,0.67
2018-03-11T07:54:20.970Z,0.70
2018-03-11T07:56:49.400Z,1.20
2018-03-11T07:59:17.063Z,0.67
2018-03-11T08:01:44.705Z,0.60
2018-03-11T08:04:12.353Z,0.87
2018-03-11T08:06:40.010Z,0.80
2018-03-11T08:09:08.428Z,0.77
2018-03-11T08:11:36.070Z,0.90
2018-03-11T08:14:04.512Z,1.27
2018-03-11T08:16:32.138Z,0.93
2018-03-11T08:18:59.815Z,0.70
2018-03-11T08:21:27.446Z,2.15
2018-03-11T08:23:55.827Z,1.00
2018-03-11T08:26:23.465Z,1.37
2018-03-11T08:28:51.100Z,1.23
2018-03-11T08:31:18.730Z,0.83
2018-03-11T08:33:47.128Z,0.67
2018-03-11T08:36:15.566Z,0.70
2018-03-11T08:38:43.188Z,0.60
2018-03-11T08:41:10.795Z,0.83
2018-03-11T08:43:38.465Z,0.77
2018-03-11T08:46:06.066Z,1.00
2018-03-11T08:51:08.420Z,1.37
2018-03-11T08:53:36.059Z,0.70
2018-03-11T08:56:03.679Z,0.90
2018-03-11T08:58:31.391Z,0.97
2018-03-11T09:00:59.023Z,1.20
2018-03-11T09:03:27.436Z,0.90
2018-03-11T09:05:55.065Z,0.90
2018-03-11T09:08:22.719Z,1.13
2018-03-11T09:10:51.134Z,0.87
2018-03-11T09:13:19.540Z,1.07
2018-03-11T09:15:47.257Z,1.00
2018-03-11T09:18:14.870Z,0.70
2018-03-11T09:20:42.534Z,0.73
2018-03-11T09:23:10.214Z,0.60
2018-03-11T09:25:37.863Z,0.90
2018-03-11T09:28:06.948Z,0.70
2018-03-11T09:30:36.432Z,0.70
2018-03-11T09:33:04.144Z,0.70
2018-03-11T09:35:31.810Z,1.10
2018-03-11T09:37:59.449Z,1.00
2018-03-11T09:40:27.872Z,0.90
2018-03-11T09:42:55.555Z,4.50
2018-03-11T09:45:23.194Z,2.93
2018-03-11T09:47:50.854Z,1.00
2018-03-11T09:50:18.550Z,4.50
2018-03-11T09:52:46.160Z,1.10
2018-03-11T09:55:13.816Z,0.80
2018-03-11T09:57:41.546Z,1.20
2018-03-11T10:00:09.504Z,0.90
2018-03-11T10:02:37.146Z,1.03
2018-03-11T10:05:05.592Z,1.00
2018-03-11T10:07:35.754Z,1.20
2018-03-11T10:10:03.410Z,1.33
2018-03-11T10:12:31.106Z,0.93
2018-03-11T10:14:58.750Z,0.70
2018-03-11T10:17:27.180Z,0.80
2018-03-11T10:19:54.832Z,0.80
2018-03-11T10:22:22.490Z,1.40
2018-03-11T10:24:50.128Z,0.93
2018-03-11T10:27:17.854Z,0.80
2018-03-11T10:29:45.488Z,0.90
2018-03-11T10:32:13.147Z,0.97
2018-03-11T10:34:41.584Z,0.90
2018-03-11T10:37:09.207Z,0.90
2018-03-11T10:39:36.876Z,0.90
2018-03-11T10:42:04.670Z,1.20
2018-03-11T10:44:32.318Z,0.70
2018-03-11T10:46:59.970Z,1.43
2018-03-11T10:49:27.602Z,1.13
2018-03-11T10:51:55.419Z,1.10
2018-03-11T10:54:23.103Z,1.90
2018-03-11T10:56:50.731Z,9.80
2018-03-11T10:59:19.273Z,39.70
2018-03-11T11:02:01.800Z,40.37
2018-03-11T11:04:34.258Z,19.37
2018-03-11T11:07:01.985Z,2.60
2018-03-11T11:09:29.708Z,2.37
2018-03-11T11:11:57.383Z,1.20
2018-03-11T11:14:25.157Z,3.70
2018-03-11T11:16:52.821Z,4.20
2018-03-11T11:19:20.480Z,5.97
2018-03-11T11:21:48.150Z,1.90
2018-03-11T11:24:15.820Z,12.37
2018-03-11T11:26:43.535Z,4.43
2018-03-11T11:29:11.196Z,3.87
2018-03-11T11:31:38.850Z,12.40
2018-03-11T11:34:06.583Z,10.63
2018-03-11T11:36:34.996Z,4.60
2018-03-11T11:39:02.648Z,3.90
2018-03-11T11:41:30.320Z,9.87
2018-03-11T11:43:58.370Z,10.77
2018-03-11T11:46:26.060Z,5.73
2018-03-11T11:48:53.695Z,12.80
2018-03-11T11:51:21.469Z,2.70
2018-03-11T11:53:49.113Z,9.67
2018-03-11T11:56:16.779Z,7.07
2018-03-11T11:58:45.205Z,10.30
2018-03-11T12:01:13.640Z,2.93
2018-03-11T12:03:41.347Z,6.50
2018-03-11T12:06:09.020Z,8.47
2018-03-11T12:08:36.682Z,0.80
2018-03-11T12:11:04.335Z,5.13
2018-03-11T12:13:32.017Z,1.47
2018-03-11T12:15:59.691Z,1.30
2018-03-11T12:18:27.350Z,9.23
2018-03-11T12:20:55.045Z,0.80
2018-03-11T12:23:23.466Z,7.00
2018-03-11T12:25:51.143Z,8.27
2018-03-11T12:28:18.959Z,8.60
2018-03-11T12:30:47.462Z,4.60
2018-03-11T12:33:20.657Z,2.10
2018-03-11T12:35:48.280Z,0.60
2018-03-11T12:38:15.954Z,6.83
2018-03-11T12:40:43.586Z,1.00
2018-03-11T12:43:11.270Z,6.37
2018-03-11T12:45:38.926Z,1.23
2018-03-11T12:48:06.578Z,1.30
2018-03-11T12:50:34.239Z,8.30
2018-03-11T12:53:01.910Z,17.97
2018-03-11T12:55:29.559Z,15.23
2018-03-11T12:57:57.275Z,21.27
2018-03-11T13:00:25.014Z,16.33
2018-03-11T13:02:52.696Z,19.40
2018-03-11T13:05:20.449Z,13.10
2018-03-11T13:07:49.400Z,3.13
2018-03-11T13:10:17.050Z,15.80
2018-03-11T13:12:44.779Z,2.23
2018-03-11T13:15:12.479Z,18.07
2018-03-11T13:17:40.128Z,14.73
2018-03-11T13:20:19.773Z,18.83
2018-03-11T13:22:47.576Z,16.80
2018-03-11T13:25:15.213Z,23.27
2018-03-11T13:27:54.833Z,22.27
2018-03-11T13:30:22.484Z,37.27
2018-03-11T13:33:01.875Z,11.83
2018-03-11T13:35:31.518Z,31.43
2018-03-11T13:38:11.015Z,29.80
2018-03-11T13:40:41.275Z,24.67
2018-03-11T13:43:08.922Z,16.40
2018-03-11T13:45:48.256Z,5.83
2018-03-11T13:48:15.981Z,0.93
2018-03-11T13:50:44.430Z,6.40
2018-03-11T13:53:24.649Z,3.03
2018-03-11T13:55:55.316Z,2.13
2018-03-11T13:58:34.783Z,3.20
2018-03-11T14:01:02.473Z,2.53
2018-03-11T14:03:30.297Z,3.57
2018-03-11T14:05:58.746Z,5.90
2018-03-11T14:08:26.467Z,9.53
2018-03-11T14:10:54.367Z,10.83
2018-03-11T14:13:22.229Z,10.00
2018-03-11T14:15:49.850Z,5.93
2018-03-11T14:18:18.335Z,0.97
2018-03-11T14:20:46.731Z,0.80
2018-03-11T14:23:15.139Z,0.93
2018-03-11T14:25:42.795Z,1.30
2018-03-11T14:28:10.472Z,1.20
2018-03-11T14:30:38.078Z,0.90
2018-03-11T14:33:05.731Z,1.00
2018-03-11T14:35:34.134Z,0.70
2018-03-11T14:38:01.748Z,0.90
2018-03-11T14:40:29.463Z,0.60
2018-03-11T14:42:57.096Z,0.90
2018-03-11T14:45:24.762Z,0.87
2018-03-11T14:47:52.374Z,0.83
2018-03-11T14:50:20.059Z,2.00
2018-03-11T14:52:48.483Z,1.40
2018-03-11T14:55:16.104Z,1.00
2018-03-11T14:57:44.502Z,2.07
2018-03-11T15:00:12.142Z,1.83
2018-03-11T15:02:39.797Z,0.83
2018-03-11T15:05:07.520Z,1.40
2018-03-11T15:07:35.193Z,1.10
2018-03-11T15:10:02.845Z,1.10
2018-03-11T15:12:30.477Z,1.10
2018-03-11T15:14:59.133Z,0.77
2018-03-11T15:17:26.770Z,0.50
2018-03-11T15:19:54.417Z,0.80
2018-03-11T15:22:22.063Z,0.93
2018-03-11T15:24:50.459Z,1.10
2018-03-11T15:27:18.919Z,1.80
2018-03-11T15:29:46.743Z,1.03
2018-03-11T15:32:15.191Z,1.00
2018-03-11T15:34:42.885Z,0.90
2018-03-11T15:37:10.608Z,0.87
2018-03-11T15:39:38.333Z,1.20
2018-03-11T15:42:05.977Z,1.23
2018-03-11T15:44:34.409Z,1.87
2018-03-11T15:47:02.455Z,1.47
2018-03-11T15:49:30.170Z,2.40
2018-03-11T15:51:57.813Z,1.57
2018-03-11T15:54:25.476Z,1.30
2018-03-11T15:56:53.230Z,1.30
2018-03-11T15:59:20.867Z,1.43
2018-03-11T16:01:49.288Z,1.47
2018-03-11T16:04:16.906Z,2.40
2018-03-11T16:06:44.605Z,1.67
2018-03-11T16:09:12.262Z,1.93
2018-03-11T16:11:40.756Z,2.23
2018-03-11T16:14:08.442Z,3.40
2018-03-11T16:16:36.070Z,5.10
2018-03-11T16:19:04.655Z,4.50
2018-03-11T16:21:33.088Z,4.77
2018-03-11T16:24:00.762Z,8.13
2018-03-11T16:26:28.410Z,6.17
2018-03-11T16:28:56.191Z,3.97
2018-03-11T16:31:23.887Z,3.57
2018-03-11T16:33:51.571Z,30.93
2018-03-11T16:36:20.020Z,3.97
2018-03-11T16:38:47.653Z,2.80
2018-03-11T16:41:15.360Z,36.57
2018-03-11T16:43:43.091Z,8.47
2018-03-11T16:46:10.732Z,4.47
2018-03-11T16:48:39.235Z,9.57
2018-03-11T16:51:07.092Z,27.17
2018-03-11T16:53:35.702Z,12.70
2018-03-11T16:56:03.453Z,8.03
2018-03-11T16:58:31.920Z,6.27
2018-03-11T17:00:59.562Z,18.07
2018-03-11T17:03:27.236Z,7.63
2018-03-11T17:05:54.945Z,6.37
2018-03-11T17:08:23.392Z,3.90
2018-03-11T17:10:51.179Z,4.00
2018-03-11T17:13:19.672Z,3.63
2018-03-11T17:15:48.318Z,3.30
2018-03-11T17:18:16.031Z,2.87
2018-03-11T17:20:44.501Z,3.53
2018-03-11T17:23:12.217Z,3.10
2018-03-11T17:25:39.995Z,2.73
2018-03-11T17:28:07.813Z,2.80
2018-03-11T17:30:36.426Z,2.87
2018-03-11T17:33:04.185Z,2.87
2018-03-11T17:35:32.500Z,4.40
2018-03-11T17:38:00.587Z,3.67
2018-03-11T17:40:28.735Z,3.43
2018-03-11T17:42:56.444Z,2.90
2018-03-11T17:45:24.246Z,2.73
2018-03-11T17:47:52.751Z,4.93
2018-03-11T17:50:20.552Z,1.87
2018-03-11T17:52:48.358Z,2.13
2018-03-11T17:55:16.104Z,2.40
2018-03-11T17:57:44.500Z,3.07
2018-03-11T18:00:12.762Z,3.07
2018-03-11T18:02:40.518Z,3.20
2018-03-11T18:05:08.284Z,6.00
2018-03-11T18:07:36.001Z,4.53
2018-03-11T18:10:03.704Z,3.53
2018-03-11T18:12:31.416Z,2.97
2018-03-11T18:14:59.229Z,2.20
2018-03-11T18:17:26.947Z,1.80
2018-03-11T18:19:54.740Z,2.37
2018-03-11T18:22:22.556Z,2.13
2018-03-11T18:24:50.404Z,3.10
2018-03-11T18:27:18.979Z,4.80
2018-03-11T18:29:46.818Z,5.10
2018-03-11T18:32:15.361Z,6.23
2018-03-11T18:34:43.165Z,5.40
2018-03-11T18:37:11.959Z,6.03
2018-03-11T18:39:39.733Z,51.73
2018-03-11T18:42:07.532Z,207.63
2018-03-11T18:44:35.355Z,48.13
2018-03-11T18:47:03.337Z,72.37
2018-03-11T18:49:31.188Z,36.63
2018-03-11T18:51:58.990Z,26.83
2018-03-11T18:54:26.915Z,108.03
2018-03-11T18:56:54.768Z,86.73
2018-03-11T18:59:23.361Z,18.80
2018-03-11T19:01:51.200Z,24.23
2018-03-11T19:04:19.008Z,11.57
2018-03-11T19:06:48.577Z,68.77
2018-03-11T19:09:16.425Z,19.77
2018-03-11T19:11:44.314Z,34.53
2018-03-11T19:14:12.241Z,50.50
2018-03-11T19:16:40.112Z,160.47
2018-03-11T19:19:08.806Z,137.53
2018-03-11T19:21:38.406Z,83.43
2018-03-11T19:24:07.114Z,71.90
2018-03-11T19:26:34.967Z,101.67
2018-03-11T19:29:03.640Z,132.27
2018-03-11T19:31:31.491Z,32.17
2018-03-11T19:33:59.686Z,19.73
2018-03-11T19:36:27.678Z,18.20
2018-03-11T19:38:56.749Z,14.80
2018-03-11T19:41:25.624Z,21.43
2018-03-11T19:43:53.594Z,14.10
2018-03-11T19:46:21.536Z,7.67
2018-03-11T19:48:49.493Z,11.47
2018-03-11T19:51:19.178Z,11.70
2018-03-11T19:53:48.868Z,13.53
2018-03-11T19:56:16.848Z,28.00
2018-03-11T19:58:44.631Z,9.60
2018-03-11T20:01:12.500Z,20.43
2018-03-11T20:03:40.580Z,17.20
2018-03-11T20:06:08.471Z,17.80
2018-03-11T20:08:37.237Z,11.10
2018-03-11T20:11:05.039Z,12.10
2018-03-11T20:13:33.705Z,12.57
2018-03-11T20:16:01.459Z,16.40
2018-03-11T20:18:29.992Z,21.60
2018-03-11T20:20:58.545Z,29.93
2018-03-11T20:23:26.314Z,87.83
2018-03-11T20:25:54.844Z,91.63
2018-03-11T20:28:22.633Z,48.93
2018-03-11T20:30:50.444Z,45.33
2018-03-11T20:33:18.282Z,44.17
2018-03-11T20:35:46.026Z,23.13
2018-03-11T20:38:14.587Z,27.47
2018-03-11T20:40:42.332Z,12.03
2018-03-11T20:43:10.175Z,10.70
2018-03-11T20:45:37.917Z,8.43
2018-03-11T20:48:05.676Z,11.27
2018-03-11T20:50:34.224Z,7.70
2018-03-11T20:53:01.967Z,6.87
2018-03-11T20:55:29.685Z,6.93
2018-03-11T20:57:58.383Z,3.90
2018-03-11T21:00:26.208Z,4.33
2018-03-11T21:02:53.941Z,4.33
2018-03-11T21:05:22.628Z,3.40
2018-03-11T21:07:50.342Z,3.27
2018-03-11T21:10:18.180Z,3.47
2018-03-11T21:12:45.902Z,3.30
2018-03-11T21:15:13.700Z,2.67
2018-03-11T21:17:41.989Z,2.80
2018-03-11T21:20:09.650Z,3.40
2018-03-11T21:22:38.102Z,5.87
2018-03-11T21:25:05.727Z,6.03
2018-03-11T21:27:33.403Z,5.87
2018-03-11T21:30:01.101Z,4.90
2018-03-11T21:32:28.816Z,3.90
2018-03-11T21:34:56.531Z,3.03
2018-03-11T21:37:24.157Z,2.40
2018-03-11T21:39:51.852Z,2.47
2018-03-11T21:42:19.471Z,2.70
2018-03-11T21:44:47.951Z,3.83
2018-03-11T21:47:16.358Z,2.33
2018-03-11T21:49:44.101Z,3.20
2018-03-11T21:52:12.495Z,3.03
2018-03-11T21:54:40.135Z,3.70
2018-03-11T21:57:07.844Z,2.70
2018-03-11T21:59:35.475Z,2.53
2018-03-11T22:02:03.555Z,3.50
2018-03-11T22:04:31.955Z,2.70
2018-03-11T22:06:59.573Z,2.90
2018-03-11T22:09:27.321Z,3.07
2018-03-11T22:11:54.942Z,4.20
2018-03-11T22:14:22.651Z,4.00
2018-03-11T22:16:50.268Z,4.10
2018-03-11T22:19:17.988Z,5.80
2018-03-11T22:21:45.661Z,6.57
2018-03-11T22:24:13.315Z,7.30
2018-03-11T22:26:41.008Z,7.10
2018-03-11T22:29:08.638Z,7.27
2018-03-11T22:31:37.153Z,7.23
2018-03-11T22:34:04.783Z,7.17
2018-03-11T22:36:32.415Z,7.83
2018-03-11T22:39:00.079Z,8.17
2018-03-11T22:41:27.762Z,8.00
2018-03-11T22:43:55.449Z,8.27
2018-03-11T22:46:23.834Z,8.43
2018-03-11T22:48:52.260Z,8.73
2018-03-11T22:51:19.902Z,8.00
2018-03-11T22:53:47.541Z,8.00
2018-03-11T22:56:16.030Z,7.30
2018-03-11T22:58:44.472Z,7.60
2018-03-11T23:01:12.157Z,8.00
2018-03-11T23:03:39.811Z,8.20
2018-03-11T23:06:07.491Z,7.93
2018-03-11T23:08:35.120Z,8.10
2018-03-11T23:11:02.780Z,8.47
2018-03-11T23:13:30.428Z,7.37
2018-03-11T23:15:58.143Z,8.37
2018-03-11T23:18:25.820Z,9.07
2018-03-11T23:20:53.437Z,9.43
2018-03-11T23:23:21.073Z,9.10
2018-03-11T23:25:49.464Z,8.80
2018-03-11T23:28:17.889Z,10.03
2018-03-11T23:30:45.637Z,9.17
2018-03-11T23:33:13.319Z,9.57
2018-03-11T23:35:40.988Z,10.00
2018-03-11T23:38:08.654Z,9.20
2018-03-11T23:40:36.295Z,8.70
2018-03-11T23:43:04.689Z,7.97
2018-03-11T23:45:32.324Z,8.40
2018-03-11T23:47:59.970Z,8.17
2018-03-11T23:50:27.598Z,9.13
2018-03-11T23:52:55.229Z,8.67
2018-03-11T23:55:23.659Z,9.77
2018-03-11T23:57:51.464Z,9.63
